createdAt,value
2018-05-17T00:01:09.320Z,7.77
2018-05-17T00:03:35.238Z,6.53
2018-05-17T00:06:01.142Z,5.90
2018-05-17T00:08:27.098Z,6.00
2018-05-17T00:10:53.033Z,7.40
2018-05-17T00:13:18.950Z,5.57
2018-05-17T00:15:48.712Z,6.77
2018-05-17T00:18:14.646Z,6.57
2018-05-17T00:20:40.562Z,6.53
2018-05-17T00:23:06.493Z,6.20
2018-05-17T00:25:32.401Z,6.80
2018-05-17T00:27:58.383Z,6.30
2018-05-17T00:30:24.300Z,6.10
2018-05-17T00:32:50.212Z,6.70
2018-05-17T00:35:16.153Z,5.83
2018-05-17T00:37:42.043Z,6.83
2018-05-17T00:40:07.977Z,5.90
2018-05-17T00:42:33.885Z,6.13
2018-05-17T00:44:59.816Z,6.20
2018-05-17T00:47:25.733Z,5.53
2018-05-17T00:49:51.648Z,6.30
2018-05-17T00:52:17.612Z,6.17
2018-05-17T00:54:43.511Z,5.73
2018-05-17T00:57:09.399Z,6.53
2018-05-17T00:59:35.327Z,5.90
2018-05-17T01:02:01.296Z,5.70
2018-05-17T01:04:27.217Z,4.87
2018-05-17T01:06:53.151Z,5.83
2018-05-17T01:09:19.080Z,6.27
2018-05-17T01:11:45.018Z,6.07
2018-05-17T01:14:10.950Z,5.73
2018-05-17T01:16:36.901Z,5.33
2018-05-17T01:19:02.836Z,6.20
2018-05-17T01:21:28.782Z,4.93
2018-05-17T01:23:54.686Z,6.27
2018-05-17T01:26:20.588Z,5.57
2018-05-17T01:28:46.520Z,5.60
2018-05-17T01:31:12.432Z,5.60
2018-05-17T01:33:38.364Z,5.67
2018-05-17T01:36:04.284Z,5.10
2018-05-17T01:38:30.223Z,5.73
2018-05-17T01:40:56.123Z,4.57
2018-05-17T01:43:22.040Z,5.90
2018-05-17T01:45:47.966Z,5.57
2018-05-17T01:48:13.898Z,5.13
2018-05-17T01:50:39.834Z,5.90
2018-05-17T01:53:05.756Z,5.33
2018-05-17T01:55:31.688Z,5.43
2018-05-17T01:57:57.618Z,4.97
2018-05-17T02:00:23.540Z,5.20
2018-05-17T02:02:49.470Z,5.87
2018-05-17T02:05:15.406Z,5.93
2018-05-17T02:07:41.305Z,5.87
2018-05-17T02:10:07.231Z,6.00
2018-05-17T02:12:33.149Z,6.00
2018-05-17T02:14:59.073Z,5.23
2018-05-17T02:17:24.987Z,5.73
2018-05-17T02:19:50.935Z,5.73
2018-05-17T02:22:16.875Z,5.40
2018-05-17T02:24:42.774Z,5.70
2018-05-17T02:27:08.715Z,5.73
2018-05-17T02:29:34.612Z,5.50
2018-05-17T02:32:00.545Z,5.80
2018-05-17T02:34:26.474Z,6.27
2018-05-17T02:36:52.408Z,5.60
2018-05-17T02:39:18.325Z,6.40
2018-05-17T02:41:44.269Z,6.37
2018-05-17T02:44:10.204Z,6.23
2018-05-17T02:46:36.168Z,6.83
2018-05-17T02:49:02.114Z,5.93
2018-05-17T02:51:28.021Z,6.03
2018-05-17T02:53:53.951Z,6.90
2018-05-17T02:56:19.890Z,6.33
2018-05-17T02:58:45.814Z,7.80
2018-05-17T03:01:11.726Z,7.00
2018-05-17T03:03:37.676Z,5.43
2018-05-17T03:06:03.581Z,6.37
2018-05-17T03:08:29.524Z,6.50
2018-05-17T03:10:55.425Z,6.77
2018-05-17T03:13:21.352Z,6.67
2018-05-17T03:15:47.266Z,5.97
2018-05-17T03:18:13.204Z,6.47
2018-05-17T03:20:39.147Z,6.57
2018-05-17T03:23:05.061Z,5.93
2018-05-17T03:25:30.992Z,7.00
2018-05-17T03:27:56.914Z,6.10
2018-05-17T03:30:22.845Z,6.30
2018-05-17T03:32:48.777Z,6.40
2018-05-17T03:35:14.688Z,6.37
2018-05-17T03:37:40.595Z,6.77
2018-05-17T03:40:06.529Z,6.50
2018-05-17T03:42:32.429Z,6.87
2018-05-17T03:44:58.353Z,6.27
2018-05-17T03:47:24.283Z,7.13
2018-05-17T03:49:50.203Z,6.53
2018-05-17T03:52:16.125Z,6.93
2018-05-17T03:54:42.054Z,6.77
2018-05-17T03:57:07.969Z,5.87
2018-05-17T03:59:33.891Z,6.03
2018-05-17T04:02:12.183Z,7.67
2018-05-17T04:04:50.569Z,6.53
2018-05-17T04:07:16.487Z,6.43
2018-05-17T04:09:42.397Z,7.33
2018-05-17T04:12:08.314Z,6.37
2018-05-17T04:14:34.239Z,6.33
2018-05-17T04:17:00.196Z,7.17
2018-05-17T04:19:26.108Z,6.57
2018-05-17T04:21:52.063Z,6.87
2018-05-17T04:24:18.024Z,7.10
2018-05-17T04:26:43.944Z,6.90
2018-05-17T04:29:09.890Z,6.33
2018-05-17T04:31:35.809Z,6.60
2018-05-17T04:34:01.736Z,7.27
2018-05-17T04:36:27.656Z,7.37
2018-05-17T04:38:53.613Z,5.47
2018-05-17T04:41:19.541Z,8.07
2018-05-17T04:43:45.463Z,7.17
2018-05-17T04:46:11.391Z,8.77
2018-05-17T04:48:37.316Z,6.87
2018-05-17T04:51:03.265Z,6.93
2018-05-17T04:53:29.167Z,6.33
2018-05-17T04:55:55.106Z,7.53
2018-05-17T04:58:21.027Z,6.50
2018-05-17T05:00:46.955Z,6.90
2018-05-17T05:03:12.873Z,6.80
2018-05-17T05:05:38.804Z,7.53
2018-05-17T05:08:04.749Z,7.47
2018-05-17T05:10:30.659Z,6.80
2018-05-17T05:12:56.589Z,6.50
2018-05-17T05:15:22.502Z,6.63
2018-05-17T05:17:48.443Z,6.47
2018-05-17T05:20:14.377Z,7.80
2018-05-17T05:22:40.293Z,8.90
2018-05-17T05:25:06.212Z,7.13
2018-05-17T05:27:32.168Z,6.53
2018-05-17T05:29:58.088Z,6.40
2018-05-17T05:32:24.049Z,6.37
2018-05-17T05:34:49.986Z,6.90
2018-05-17T05:37:15.894Z,6.53
2018-05-17T05:39:41.814Z,6.97
2018-05-17T05:42:07.735Z,6.07
2018-05-17T05:44:33.681Z,6.73
2018-05-17T05:46:59.619Z,6.93
2018-05-17T05:49:25.579Z,5.93
2018-05-17T05:51:51.459Z,7.77
2018-05-17T05:54:17.394Z,6.90
2018-05-17T05:56:43.319Z,8.00
2018-05-17T05:59:09.248Z,6.30
2018-05-17T06:01:35.202Z,6.80
2018-05-17T06:04:01.137Z,7.77
2018-05-17T06:06:27.094Z,7.27
2018-05-17T06:08:53.003Z,7.50
2018-05-17T06:11:18.937Z,6.77
2018-05-17T06:13:44.866Z,7.40
2018-05-17T06:16:10.801Z,7.50
2018-05-17T06:18:36.717Z,7.60
2018-05-17T06:21:02.686Z,7.30
2018-05-17T06:23:28.592Z,8.27
2018-05-17T06:25:54.517Z,6.97
2018-05-17T06:28:20.425Z,6.70
2018-05-17T06:30:46.346Z,8.50
2018-05-17T06:33:12.293Z,7.50
2018-05-17T06:35:38.193Z,7.77
2018-05-17T06:38:04.131Z,8.43
2018-05-17T06:40:30.049Z,7.33
2018-05-17T06:42:55.991Z,6.53
2018-05-17T06:45:21.917Z,6.77
2018-05-17T06:47:47.875Z,6.93
2018-05-17T06:50:13.808Z,7.10
2018-05-17T06:52:39.727Z,7.33
2018-05-17T06:55:05.655Z,6.77
2018-05-17T06:57:31.581Z,7.30
2018-05-17T06:59:57.507Z,6.43
2018-05-17T07:02:23.432Z,7.40
2018-05-17T07:04:49.358Z,7.47
2018-05-17T07:07:15.273Z,7.33
2018-05-17T07:09:41.197Z,7.93
2018-05-17T07:12:07.136Z,8.07
2018-05-17T07:14:33.041Z,8.27
2018-05-17T07:16:58.951Z,8.60
2018-05-17T07:19:24.857Z,7.43
2018-05-17T07:21:50.808Z,7.67
2018-05-17T07:24:16.734Z,7.90
2018-05-17T07:26:42.674Z,9.07
2018-05-17T07:29:08.591Z,7.87
2018-05-17T07:31:34.540Z,7.33
2018-05-17T07:34:00.481Z,7.80
2018-05-17T07:36:26.438Z,8.23
2018-05-17T07:38:52.412Z,7.37
2018-05-17T07:41:18.346Z,7.27
2018-05-17T07:43:44.302Z,7.63
2018-05-17T07:46:10.223Z,7.83
2018-05-17T07:48:36.167Z,8.67
2018-05-17T07:51:02.063Z,8.13
2018-05-17T07:53:28.001Z,7.47
2018-05-17T07:55:53.925Z,6.53
2018-05-17T07:58:19.880Z,7.77
2018-05-17T08:00:45.814Z,8.23
2018-05-17T08:03:11.753Z,7.73
2018-05-17T08:05:37.669Z,7.00
2018-05-17T08:08:03.629Z,7.83
2018-05-17T08:10:29.549Z,7.77
2018-05-17T08:12:55.457Z,7.83
2018-05-17T08:15:21.378Z,7.83
2018-05-17T08:17:47.302Z,6.20
2018-05-17T08:20:13.242Z,7.23
2018-05-17T08:22:39.190Z,7.43
2018-05-17T08:25:05.124Z,7.57
2018-05-17T08:27:31.067Z,8.20
2018-05-17T08:29:56.982Z,7.40
2018-05-17T08:32:22.895Z,7.70
2018-05-17T08:34:48.867Z,7.43
2018-05-17T08:37:14.802Z,7.17
2018-05-17T08:39:40.714Z,7.43
2018-05-17T08:42:06.643Z,8.87
2018-05-17T08:44:32.574Z,7.73
2018-05-17T08:46:58.498Z,7.67
2018-05-17T08:49:24.430Z,7.13
2018-05-17T08:51:50.392Z,7.73
2018-05-17T08:54:16.325Z,7.40
2018-05-17T08:56:42.266Z,7.57
2018-05-17T08:59:08.187Z,7.87
2018-05-17T09:01:34.089Z,7.97
2018-05-17T09:04:00.043Z,7.93
2018-05-17T09:06:25.942Z,8.30
2018-05-17T09:08:51.873Z,8.63
2018-05-17T09:11:17.780Z,9.00
2018-05-17T09:13:43.715Z,8.73
2018-05-17T09:16:10.041Z,9.90
2018-05-17T09:18:36.148Z,10.93
2018-05-17T09:21:02.078Z,10.07
2018-05-17T09:23:28.008Z,10.57
2018-05-17T09:25:53.949Z,11.33
2018-05-17T09:28:19.885Z,10.63
2018-05-17T09:30:45.809Z,11.20
2018-05-17T09:33:11.743Z,12.83
2018-05-17T09:35:37.720Z,10.43
2018-05-17T09:38:03.705Z,11.17
2018-05-17T09:40:29.653Z,11.20
2018-05-17T09:42:55.571Z,10.30
2018-05-17T09:45:21.475Z,9.30
2018-05-17T09:47:47.397Z,10.03
2018-05-17T09:50:13.321Z,9.03
2018-05-17T09:52:39.277Z,11.53
2018-05-17T09:55:05.241Z,10.73
2018-05-17T09:57:31.137Z,11.30
2018-05-17T09:59:57.039Z,9.27
2018-05-17T10:02:22.996Z,11.60
2018-05-17T10:04:48.935Z,11.60
2018-05-17T10:07:14.884Z,11.80
2018-05-17T10:09:40.801Z,12.77
2018-05-17T10:12:06.728Z,11.83
2018-05-17T10:14:32.710Z,12.57
2018-05-17T10:16:58.627Z,11.70
2018-05-17T10:19:24.566Z,11.83
2018-05-17T10:21:50.489Z,11.03
2018-05-17T10:24:16.432Z,9.57
2018-05-17T10:26:42.358Z,9.40
2018-05-17T10:29:08.306Z,10.57
2018-05-17T10:31:34.242Z,9.27
2018-05-17T10:34:00.198Z,9.90
2018-05-17T10:36:26.100Z,9.67
2018-05-17T10:38:52.003Z,10.20
2018-05-17T10:41:17.936Z,9.47
2018-05-17T10:43:43.870Z,11.43
2018-05-17T10:46:09.830Z,9.67
2018-05-17T10:48:35.758Z,9.87
2018-05-17T10:51:01.702Z,9.10
2018-05-17T10:53:27.620Z,8.33
2018-05-17T10:55:53.558Z,9.27
2018-05-17T10:58:19.467Z,8.67
2018-05-17T11:00:45.408Z,8.10
2018-05-17T11:03:11.343Z,8.37
2018-05-17T11:05:37.288Z,7.97
2018-05-17T11:08:03.241Z,8.17
2018-05-17T11:10:29.146Z,8.23
2018-05-17T11:12:55.081Z,8.20
2018-05-17T11:15:21.004Z,7.70
2018-05-17T11:17:46.945Z,8.47
2018-05-17T11:20:12.871Z,7.87
2018-05-17T11:22:38.815Z,8.37
2018-05-17T11:25:04.800Z,7.83
2018-05-17T11:27:31.320Z,7.43
2018-05-17T11:29:57.274Z,7.93
2018-05-17T11:32:23.209Z,6.77
2018-05-17T11:34:49.146Z,7.33
2018-05-17T11:37:15.088Z,7.30
2018-05-17T11:39:41.058Z,7.00
2018-05-17T11:42:07.001Z,6.67
2018-05-17T11:44:32.972Z,7.20
2018-05-17T11:46:58.913Z,6.63
2018-05-17T11:49:24.856Z,6.97
2018-05-17T11:51:50.762Z,7.20
2018-05-17T11:54:16.684Z,7.90
2018-05-17T11:56:42.600Z,6.90
2018-05-17T11:59:08.564Z,6.87
2018-05-17T12:01:34.606Z,6.07
2018-05-17T12:04:00.472Z,5.73
2018-05-17T12:06:26.900Z,7.30
2018-05-17T12:08:52.812Z,6.43
2018-05-17T12:11:18.772Z,7.60
2018-05-17T12:13:44.686Z,7.53
2018-05-17T12:16:10.621Z,6.60
2018-05-17T12:18:36.560Z,7.23
2018-05-17T12:21:02.534Z,7.37
2018-05-17T12:23:28.467Z,6.03
2018-05-17T12:25:54.412Z,6.00
2018-05-17T12:28:20.321Z,6.40
2018-05-17T12:30:46.238Z,7.07
2018-05-17T12:33:12.148Z,7.23
2018-05-17T12:35:38.105Z,7.60
2018-05-17T12:38:04.039Z,8.17
2018-05-17T12:40:29.976Z,8.17
2018-05-17T12:42:56.035Z,7.37
2018-05-17T12:45:21.855Z,6.53
2018-05-17T12:47:47.813Z,7.40
2018-05-17T12:50:13.751Z,6.40
2018-05-17T12:52:39.681Z,7.77
2018-05-17T12:55:05.606Z,6.83
2018-05-17T12:57:31.525Z,7.37
2018-05-17T12:59:58.619Z,6.67
2018-05-17T13:02:24.544Z,6.83
2018-05-17T13:04:50.487Z,6.40
2018-05-17T13:07:16.407Z,6.83
2018-05-17T13:09:42.347Z,7.60
2018-05-17T13:12:08.229Z,7.10
2018-05-17T13:14:34.169Z,6.77
2018-05-17T13:17:00.105Z,7.43
2018-05-17T13:19:26.040Z,7.87
2018-05-17T13:21:51.964Z,6.97
2018-05-17T13:24:17.895Z,6.23
2018-05-17T13:26:43.834Z,6.47
2018-05-17T13:29:09.765Z,5.97
2018-05-17T13:31:35.713Z,5.67
2018-05-17T13:34:01.621Z,6.90
2018-05-17T13:36:27.586Z,7.07
2018-05-17T13:38:53.498Z,7.33
2018-05-17T13:41:19.452Z,7.00
2018-05-17T13:43:45.370Z,6.73
2018-05-17T13:46:11.272Z,6.80
2018-05-17T13:48:37.221Z,6.07
2018-05-17T13:51:03.141Z,7.50
2018-05-17T13:53:29.100Z,6.70
2018-05-17T13:55:55.034Z,6.20
2018-05-17T13:58:21.010Z,6.27
2018-05-17T14:00:46.925Z,6.50
2018-05-17T14:03:12.856Z,7.33
2018-05-17T14:05:38.767Z,7.27
2018-05-17T14:08:04.690Z,6.83
2018-05-17T14:10:30.633Z,6.37
2018-05-17T14:12:56.569Z,6.97
2018-05-17T14:15:22.561Z,7.63
2018-05-17T14:17:48.455Z,6.17
2018-05-17T14:20:14.389Z,6.57
2018-05-17T14:22:40.345Z,6.30
2018-05-17T14:25:06.295Z,7.33
2018-05-17T14:27:32.249Z,6.07
2018-05-17T14:29:58.192Z,6.67
2018-05-17T14:32:24.133Z,6.43
2018-05-17T14:34:50.078Z,6.70
2018-05-17T14:37:16.013Z,7.27
2018-05-17T14:39:41.962Z,6.10
2018-05-17T14:42:07.886Z,5.70
2018-05-17T14:44:33.798Z,6.33
2018-05-17T14:46:59.757Z,7.20
2018-05-17T14:49:25.745Z,6.63
2018-05-17T14:51:51.668Z,6.00
2018-05-17T14:54:17.583Z,5.80
2018-05-17T14:56:43.527Z,7.00
2018-05-17T14:59:09.452Z,6.47
2018-05-17T15:01:35.413Z,5.43
2018-05-17T15:04:01.362Z,6.20
2018-05-17T15:06:27.330Z,5.40
2018-05-17T15:08:53.289Z,6.10
2018-05-17T15:11:19.260Z,6.20
2018-05-17T15:13:45.152Z,6.17
2018-05-17T15:16:11.068Z,6.40
2018-05-17T15:18:37.000Z,6.07
2018-05-17T15:21:02.924Z,6.47
2018-05-17T15:23:28.868Z,6.20
2018-05-17T15:25:54.794Z,5.43
2018-05-17T15:28:20.733Z,5.77
2018-05-17T15:30:46.667Z,5.53
2018-05-17T15:33:12.605Z,5.90
2018-05-17T15:35:38.567Z,6.70
2018-05-17T15:38:04.521Z,5.90
2018-05-17T15:40:30.443Z,6.57
2018-05-17T15:42:56.383Z,6.67
2018-05-17T15:45:22.321Z,6.70
2018-05-17T15:47:48.257Z,5.87
2018-05-17T15:50:14.197Z,6.77
2018-05-17T15:52:40.131Z,6.50
2018-05-17T15:55:06.054Z,5.77
2018-05-17T15:57:31.990Z,6.13
2018-05-17T15:59:57.939Z,5.67
2018-05-17T16:02:23.895Z,5.93
2018-05-17T16:04:49.819Z,5.93
2018-05-17T16:07:15.770Z,5.27
2018-05-17T16:09:41.691Z,5.97
2018-05-17T16:12:07.627Z,5.63
2018-05-17T16:14:33.663Z,6.20
2018-05-17T16:16:59.560Z,5.33
2018-05-17T16:19:25.506Z,5.50
2018-05-17T16:21:51.434Z,5.60
2018-05-17T16:24:17.416Z,5.57
2018-05-17T16:26:43.320Z,4.77
2018-05-17T16:29:09.271Z,5.03
2018-05-17T16:31:35.221Z,5.13
2018-05-17T16:34:01.170Z,5.50
2018-05-17T16:36:27.116Z,4.90
2018-05-17T16:38:53.104Z,5.27
2018-05-17T16:41:19.069Z,5.00
2018-05-17T16:43:45.049Z,4.60
2018-05-17T16:46:11.008Z,5.30
2018-05-17T16:48:37.002Z,5.27
2018-05-17T16:51:02.905Z,4.53
2018-05-17T16:53:28.821Z,4.80
2018-05-17T16:55:54.773Z,5.10
2018-05-17T16:58:21.020Z,4.90
2018-05-17T17:00:46.731Z,5.00
2018-05-17T17:03:12.736Z,5.23
2018-05-17T17:05:38.694Z,5.10
2018-05-17T17:08:04.615Z,4.57
2018-05-17T17:10:30.582Z,5.10
2018-05-17T17:12:56.553Z,5.10
2018-05-17T17:15:22.492Z,5.10
2018-05-17T17:17:48.501Z,5.73
2018-05-17T17:20:14.461Z,5.03
2018-05-17T17:22:40.470Z,6.13
2018-05-17T17:25:06.434Z,6.30
2018-05-17T17:27:32.395Z,5.30
2018-05-17T17:29:58.330Z,5.93
2018-05-17T17:32:24.294Z,6.23
2018-05-17T17:34:50.234Z,5.87
2018-05-17T17:37:16.232Z,7.30
2018-05-17T17:39:42.203Z,6.53
2018-05-17T17:42:08.189Z,7.03
2018-05-17T17:44:34.109Z,7.90
2018-05-17T17:47:00.060Z,7.47
2018-05-17T17:49:26.096Z,7.20
2018-05-17T17:51:52.930Z,7.83
2018-05-17T17:54:19.234Z,8.40
2018-05-17T17:56:45.216Z,8.27
2018-05-17T17:59:11.194Z,7.93
2018-05-17T18:01:37.178Z,7.57
2018-05-17T18:04:04.040Z,9.37
2018-05-17T18:06:30.127Z,8.37
2018-05-17T18:08:56.174Z,8.30
2018-05-17T18:11:22.186Z,8.00
2018-05-17T18:13:48.147Z,8.70
2018-05-17T18:16:14.148Z,8.00
2018-05-17T18:18:40.115Z,7.43
2018-05-17T18:21:07.035Z,8.73
2018-05-17T18:23:33.982Z,9.00
2018-05-17T18:26:00.071Z,8.90
2018-05-17T18:28:26.115Z,8.47
2018-05-17T18:30:52.095Z,8.30
2018-05-17T18:33:18.083Z,8.67
2018-05-17T18:35:45.075Z,9.53
2018-05-17T18:38:11.350Z,7.83
2018-05-17T18:40:37.332Z,8.10
2018-05-17T18:43:03.312Z,8.33
2018-05-17T18:45:29.261Z,9.40
2018-05-17T18:47:55.281Z,9.47
2018-05-17T18:50:21.237Z,8.33
2018-05-17T18:52:47.285Z,8.43
2018-05-17T18:55:13.329Z,8.70
2018-05-17T18:57:39.312Z,7.20
2018-05-17T19:00:05.308Z,8.13
2018-05-17T19:02:32.270Z,8.97
2018-05-17T19:04:58.248Z,8.70
2018-05-17T19:07:25.072Z,8.87
2018-05-17T19:09:51.942Z,8.90
2018-05-17T19:12:18.156Z,8.80
2018-05-17T19:14:44.542Z,8.87
2018-05-17T19:17:10.535Z,8.50
2018-05-17T19:19:36.532Z,9.00
2018-05-17T19:22:03.553Z,8.30
2018-05-17T19:24:29.606Z,7.97
2018-05-17T19:26:55.616Z,7.43
2018-05-17T19:29:21.916Z,7.80
2018-05-17T19:31:49.545Z,8.07
2018-05-17T19:34:20.067Z,8.43
2018-05-17T19:36:47.357Z,9.70
2018-05-17T19:39:14.125Z,7.87
2018-05-17T19:41:40.402Z,8.03
2018-05-17T19:44:06.479Z,7.23
2018-05-17T19:46:32.503Z,7.33
2018-05-17T19:48:58.427Z,8.13
2018-05-17T19:51:25.344Z,6.67
2018-05-17T19:53:52.143Z,8.00
2018-05-17T19:56:18.091Z,6.73
2018-05-17T19:58:44.067Z,7.37
2018-05-17T20:01:10.084Z,7.60
2018-05-17T20:03:36.090Z,7.17
2018-05-17T20:06:02.010Z,7.33
2018-05-17T20:08:28.863Z,7.67
2018-05-17T20:10:54.914Z,7.77
2018-05-17T20:13:20.868Z,7.93
2018-05-17T20:15:47.499Z,8.27
2018-05-17T20:18:14.451Z,7.60
2018-05-17T20:20:41.263Z,7.47
2018-05-17T20:23:07.178Z,7.60
2018-05-17T20:25:33.215Z,7.97
2018-05-17T20:27:59.243Z,8.53
2018-05-17T20:30:25.245Z,7.47
2018-05-17T20:32:51.204Z,7.57
2018-05-17T20:35:17.133Z,7.87
2018-05-17T20:37:43.120Z,8.83
2018-05-17T20:40:09.071Z,9.07
2018-05-17T20:42:35.967Z,8.10
2018-05-17T20:45:01.908Z,8.60
2018-05-17T20:47:27.855Z,7.90
2018-05-17T20:49:53.811Z,8.97
2018-05-17T20:52:19.782Z,9.77
2018-05-17T20:54:45.736Z,9.50
2018-05-17T20:57:11.663Z,8.63
2018-05-17T20:59:37.592Z,9.50
2018-05-17T21:02:03.582Z,7.77
2018-05-17T21:04:29.546Z,9.03
2018-05-17T21:06:55.518Z,9.60
2018-05-17T21:09:21.432Z,9.10
2018-05-17T21:11:47.354Z,9.23
2018-05-17T21:14:13.348Z,9.23
2018-05-17T21:16:39.336Z,8.07
2018-05-17T21:19:05.286Z,8.37
2018-05-17T21:21:31.301Z,8.70
2018-05-17T21:23:57.233Z,8.13
2018-05-17T21:26:23.216Z,8.60
2018-05-17T21:28:49.123Z,7.77
2018-05-17T21:31:15.055Z,8.17
2018-05-17T21:33:41.001Z,7.13
2018-05-17T21:36:06.959Z,8.93
2018-05-17T21:38:32.910Z,8.00
2018-05-17T21:40:58.845Z,7.70
2018-05-17T21:43:24.801Z,7.47
2018-05-17T21:45:50.758Z,6.80
2018-05-17T21:48:16.764Z,7.20
2018-05-17T21:50:42.717Z,7.17
2018-05-17T21:53:08.702Z,7.47
2018-05-17T21:55:34.641Z,7.47
2018-05-17T21:58:00.607Z,8.67
2018-05-17T22:00:26.553Z,6.63
2018-05-17T22:02:52.473Z,7.37
2018-05-17T22:05:18.432Z,6.83
2018-05-17T22:07:44.354Z,6.83
2018-05-17T22:10:10.288Z,7.50
2018-05-17T22:12:36.256Z,7.60
2018-05-17T22:15:02.264Z,6.50
2018-05-17T22:17:28.188Z,7.33
2018-05-17T22:19:54.125Z,6.63
2018-05-17T22:22:20.058Z,7.20
2018-05-17T22:24:46.014Z,8.23
2018-05-17T22:27:11.945Z,6.93
2018-05-17T22:29:37.860Z,7.47
2018-05-17T22:32:03.784Z,6.40
2018-05-17T22:34:29.720Z,8.27
2018-05-17T22:36:55.645Z,7.40
2018-05-17T22:39:21.570Z,8.90
2018-05-17T22:41:47.488Z,8.53
2018-05-17T22:44:13.421Z,8.10
2018-05-17T22:46:39.352Z,8.10
2018-05-17T22:49:06.129Z,8.40
2018-05-17T22:51:32.055Z,8.33
2018-05-17T22:53:58.015Z,8.07
2018-05-17T22:56:36.222Z,8.30
2018-05-17T22:59:02.130Z,8.10
2018-05-17T23:01:28.047Z,7.97
2018-05-17T23:03:53.972Z,8.13
2018-05-17T23:06:19.881Z,7.63
2018-05-17T23:08:45.821Z,7.57
2018-05-17T23:11:11.782Z,7.40
2018-05-17T23:13:37.701Z,8.67
2018-05-17T23:16:03.645Z,8.43
2018-05-17T23:18:29.560Z,7.50
2018-05-17T23:20:55.501Z,7.93
2018-05-17T23:23:21.441Z,7.60
2018-05-17T23:25:47.346Z,7.23
2018-05-17T23:28:13.272Z,7.20
2018-05-17T23:30:39.224Z,7.00
2018-05-17T23:33:05.168Z,7.37
2018-05-17T23:35:31.102Z,5.97
2018-05-17T23:37:57.037Z,8.10
2018-05-17T23:40:35.236Z,7.90
2018-05-17T23:43:01.176Z,7.70
2018-05-17T23:45:27.101Z,7.73
2018-05-17T23:47:53.043Z,7.37
2018-05-17T23:50:18.979Z,8.07
2018-05-17T23:52:44.928Z,7.97
2018-05-17T23:55:10.868Z,8.00
2018-05-17T23:57:36.788Z,7.63
